Hawkesbury, Canada
Current Conditions -  °F | °C
As of 2:00 PM on Thursday 23 Oct 2014 (Local Time) from CYMX Reporting Station
Rain Showers Rain Showers  
Wind Chill: 52°   Ceiling: 4700
Heat Index: 52°   Visibility: 10mi
Dew Point: 41°   Wind: 9mph
Humidity: 67%   Direction: 60°ENE
Pressure: 30.02"   Gusts: 18mph
Location:  45.61°N, 74.61°W
Report Text: CYMX 231800Z 06008G16KT 10SM -SHRA FEW012 OVC047 11/05 A3002 RMK SF1SC7 SLP168
Loading
Personal Weather Stations






























Interactive Weather Map New forecast layout! Learn more

10-Day Weather Forecast

Advertisements
Track Severe Weather on mobile